CheckWX is a tool to help pilots better visualize weather data.  It is not intended as a substitute for an official pre-flight weather briefing.

20:34:41 UTC

ENBR METAR
Bergen , Flesland Airport
Bergen, Norway
Current

15 mins ago

ENBR 092020Z 34011KT 9999 FEW015CB FEW030 02/M02 Q1007 NOSIG RMK WIND 1200FT 34026KT
Observed
Dec-9 @ 20:20 UTC
Wind
  • 340° at 11 KTS
Visibility
10,000+ meters
Flight Rules
VFR
Cloud Levels
  • Few at 1,500' AGL
  • Few at 3,000' AGL
Temperature
C / 36°F
Dewpoint
-2°C / 28°F
Humidity
75%
Altimeter
29.73" Hg
Pressure
1006.92 hPa
Previous

45 mins ago

ENBR 091950Z 34013KT 9999 FEW015CB FEW030 02/M01 Q1006 NOSIG RMK WIND 1200FT 32023G33KT
Observed
Dec-9 @ 19:50 UTC
Wind
  • 340° at 13 KTS
Visibility
10,000+ meters
Flight Rules
VFR
Cloud Levels
  • Few at 1,500' AGL
  • Few at 3,000' AGL
Temperature
C / 36°F
Dewpoint
-1°C / 30°F
Humidity
81%
Altimeter
29.7" Hg
Pressure
1005.92 hPa
Previous

1 hour ago

ENBR 091920Z 36012KT 9999 FEW015CB FEW025 02/M02 Q1006 NOSIG RMK WIND 1200FT 34025G35KT
Observed
Dec-9 @ 19:20 UTC
Wind
  • 360° at 12 KTS
Visibility
10,000+ meters
Flight Rules
VFR
Cloud Levels
  • Few at 1,500' AGL
  • Few at 2,500' AGL
Temperature
C / 36°F
Dewpoint
-2°C / 28°F
Humidity
75%
Altimeter
29.7" Hg
Pressure
1005.92 hPa